sensor_id;sensor_type;location;lat;lon;timestamp;P1;durP1;ratioP1;P2;durP2;ratioP2
73337;SDS011;61575;49.908;35.556;2023-04-07T00:02:15;12.35;;;7.80;;
73337;SDS011;61575;49.908;35.556;2023-04-07T00:05:18;12.00;;;7.93;;
73337;SDS011;61575;49.908;35.556;2023-04-07T00:08:20;14.93;;;8.48;;
73337;SDS011;61575;49.908;35.556;2023-04-07T00:11:22;16.10;;;8.15;;
73337;SDS011;61575;49.908;35.556;2023-04-07T00:14:23;10.20;;;6.93;;
73337;SDS011;61575;49.908;35.556;2023-04-07T00:17:25;13.10;;;8.93;;
73337;SDS011;61575;49.908;35.556;2023-04-07T00:20:28;15.90;;;9.50;;
73337;SDS011;61575;49.908;35.556;2023-04-07T00:23:30;14.43;;;9.32;;
73337;SDS011;61575;49.908;35.556;2023-04-07T00:26:32;14.27;;;8.60;;
73337;SDS011;61575;49.908;35.556;2023-04-07T00:29:34;13.80;;;8.60;;
73337;SDS011;61575;49.908;35.556;2023-04-07T00:32:36;16.03;;;9.57;;
73337;SDS011;61575;49.908;35.556;2023-04-07T00:35:39;18.02;;;10.38;;
73337;SDS011;61575;49.908;35.556;2023-04-07T00:38:41;17.97;;;10.70;;
73337;SDS011;61575;49.908;35.556;2023-04-07T00:41:43;16.97;;;10.20;;
73337;SDS011;61575;49.908;35.556;2023-04-07T00:44:46;21.90;;;12.10;;
73337;SDS011;61575;49.908;35.556;2023-04-07T00:47:47;18.57;;;11.27;;
73337;SDS011;61575;49.908;35.556;2023-04-07T00:50:50;18.60;;;11.83;;
73337;SDS011;61575;49.908;35.556;2023-04-07T00:53:53;22.65;;;13.10;;
73337;SDS011;61575;49.908;35.556;2023-04-07T00:56:55;26.65;;;14.25;;
73337;SDS011;61575;49.908;35.556;2023-04-07T00:59:58;26.52;;;14.35;;
73337;SDS011;61575;49.908;35.556;2023-04-07T01:03:04;22.92;;;13.27;;
73337;SDS011;61575;49.908;35.556;2023-04-07T01:06:13;24.38;;;13.80;;
73337;SDS011;61575;49.908;35.556;2023-04-07T01:09:20;27.27;;;14.43;;
73337;SDS011;61575;49.908;35.556;2023-04-07T01:15:50;24.00;;;13.23;;
73337;SDS011;61575;49.908;35.556;2023-04-07T01:18:56;26.17;;;13.90;;
73337;SDS011;61575;49.908;35.556;2023-04-07T01:22:11;26.23;;;15.20;;
73337;SDS011;61575;49.908;35.556;2023-04-07T01:25:26;29.63;;;17.15;;
73337;SDS011;61575;49.908;35.556;2023-04-07T01:32:23;26.33;;;13.45;;
73337;SDS011;61575;49.908;35.556;2023-04-07T01:35:28;24.48;;;14.13;;
73337;SDS011;61575;49.908;35.556;2023-04-07T01:38:32;19.40;;;11.85;;
73337;SDS011;61575;49.908;35.556;2023-04-07T01:41:37;23.92;;;12.93;;
73337;SDS011;61575;49.908;35.556;2023-04-07T01:44:40;25.10;;;13.70;;
73337;SDS011;61575;49.908;35.556;2023-04-07T01:47:43;23.30;;;13.57;;
73337;SDS011;61575;49.908;35.556;2023-04-07T01:50:46;25.13;;;14.23;;
73337;SDS011;61575;49.908;35.556;2023-04-07T01:53:49;25.08;;;14.80;;
73337;SDS011;61575;49.908;35.556;2023-04-07T01:56:53;26.30;;;15.25;;
73337;SDS011;61575;49.908;35.556;2023-04-07T01:59:55;21.67;;;13.30;;
73337;SDS011;61575;49.908;35.556;2023-04-07T02:03:04;22.35;;;12.88;;
73337;SDS011;61575;49.908;35.556;2023-04-07T02:06:11;22.40;;;12.25;;
73337;SDS011;61575;49.908;35.556;2023-04-07T02:09:19;19.67;;;12.15;;
73337;SDS011;61575;49.908;35.556;2023-04-07T02:12:23;20.33;;;11.38;;
73337;SDS011;61575;49.908;35.556;2023-04-07T02:15:44;20.75;;;11.93;;
73337;SDS011;61575;49.908;35.556;2023-04-07T02:18:48;19.88;;;10.73;;
73337;SDS011;61575;49.908;35.556;2023-04-07T02:21:51;17.88;;;11.20;;
73337;SDS011;61575;49.908;35.556;2023-04-07T02:28:00;20.08;;;11.35;;
73337;SDS011;61575;49.908;35.556;2023-04-07T02:31:02;17.30;;;9.57;;
73337;SDS011;61575;49.908;35.556;2023-04-07T02:34:05;19.38;;;10.77;;
73337;SDS011;61575;49.908;35.556;2023-04-07T02:37:07;19.10;;;11.07;;
73337;SDS011;61575;49.908;35.556;2023-04-07T02:40:09;18.98;;;10.43;;
73337;SDS011;61575;49.908;35.556;2023-04-07T02:43:13;17.00;;;9.73;;
73337;SDS011;61575;49.908;35.556;2023-04-07T02:46:15;19.05;;;10.70;;
73337;SDS011;61575;49.908;35.556;2023-04-07T02:49:17;16.83;;;10.15;;
73337;SDS011;61575;49.908;35.556;2023-04-07T02:52:19;25.43;;;13.27;;
73337;SDS011;61575;49.908;35.556;2023-04-07T02:55:21;21.05;;;13.07;;
73337;SDS011;61575;49.908;35.556;2023-04-07T02:58:23;20.30;;;12.60;;
73337;SDS011;61575;49.908;35.556;2023-04-07T03:01:25;17.07;;;10.93;;
73337;SDS011;61575;49.908;35.556;2023-04-07T03:04:28;19.17;;;11.60;;
73337;SDS011;61575;49.908;35.556;2023-04-07T03:07:32;19.92;;;11.95;;
73337;SDS011;61575;49.908;35.556;2023-04-07T03:10:35;19.52;;;12.35;;
73337;SDS011;61575;49.908;35.556;2023-04-07T03:13:37;18.50;;;11.00;;
73337;SDS011;61575;49.908;35.556;2023-04-07T03:16:39;21.58;;;13.13;;
73337;SDS011;61575;49.908;35.556;2023-04-07T03:19:45;27.17;;;18.05;;
73337;SDS011;61575;49.908;35.556;2023-04-07T03:22:47;40.47;;;28.77;;
73337;SDS011;61575;49.908;35.556;2023-04-07T03:25:58;31.70;;;22.75;;
73337;SDS011;61575;49.908;35.556;2023-04-07T03:29:04;28.75;;;17.88;;
73337;SDS011;61575;49.908;35.556;2023-04-07T03:32:07;31.25;;;20.58;;
73337;SDS011;61575;49.908;35.556;2023-04-07T03:35:09;35.17;;;25.35;;
73337;SDS011;61575;49.908;35.556;2023-04-07T03:38:11;23.58;;;14.82;;
73337;SDS011;61575;49.908;35.556;2023-04-07T03:41:15;22.10;;;13.07;;
73337;SDS011;61575;49.908;35.556;2023-04-07T03:44:17;33.83;;;19.50;;
73337;SDS011;61575;49.908;35.556;2023-04-07T03:47:19;26.60;;;15.73;;
73337;SDS011;61575;49.908;35.556;2023-04-07T03:50:26;31.15;;;17.90;;
73337;SDS011;61575;49.908;35.556;2023-04-07T03:53:41;26.58;;;16.00;;
73337;SDS011;61575;49.908;35.556;2023-04-07T03:57:01;28.80;;;17.25;;
73337;SDS011;61575;49.908;35.556;2023-04-07T04:00:07;29.30;;;16.70;;
73337;SDS011;61575;49.908;35.556;2023-04-07T04:03:32;32.03;;;17.73;;
73337;SDS011;61575;49.908;35.556;2023-04-07T04:06:54;28.47;;;16.20;;
73337;SDS011;61575;49.908;35.556;2023-04-07T04:10:11;27.92;;;15.57;;
73337;SDS011;61575;49.908;35.556;2023-04-07T04:13:17;31.98;;;17.42;;
73337;SDS011;61575;49.908;35.556;2023-04-07T04:16:20;28.55;;;14.52;;
73337;SDS011;61575;49.908;35.556;2023-04-07T04:19:23;22.20;;;12.18;;
73337;SDS011;61575;49.908;35.556;2023-04-07T04:22:30;22.58;;;12.23;;
73337;SDS011;61575;49.908;35.556;2023-04-07T04:25:32;26.67;;;15.85;;
73337;SDS011;61575;49.908;35.556;2023-04-07T04:28:38;24.70;;;13.85;;
73337;SDS011;61575;49.908;35.556;2023-04-07T04:31:42;22.00;;;12.48;;
73337;SDS011;61575;49.908;35.556;2023-04-07T04:37:47;23.67;;;13.30;;
73337;SDS011;61575;49.908;35.556;2023-04-07T04:40:49;23.73;;;13.23;;
73337;SDS011;61575;49.908;35.556;2023-04-07T04:43:57;24.42;;;13.38;;
73337;SDS011;61575;49.908;35.556;2023-04-07T04:47:00;19.88;;;12.90;;
73337;SDS011;61575;49.908;35.556;2023-04-07T04:50:05;16.92;;;11.15;;
73337;SDS011;61575;49.908;35.556;2023-04-07T04:53:11;19.65;;;12.35;;
73337;SDS011;61575;49.908;35.556;2023-04-07T04:56:20;18.80;;;12.35;;
73337;SDS011;61575;49.908;35.556;2023-04-07T04:59:23;19.83;;;12.50;;
73337;SDS011;61575;49.908;35.556;2023-04-07T05:02:35;22.23;;;11.93;;
73337;SDS011;61575;49.908;35.556;2023-04-07T05:05:40;19.98;;;12.13;;
73337;SDS011;61575;49.908;35.556;2023-04-07T05:08:43;20.10;;;11.63;;
73337;SDS011;61575;49.908;35.556;2023-04-07T05:11:47;18.48;;;11.60;;
73337;SDS011;61575;49.908;35.556;2023-04-07T05:14:49;19.58;;;12.13;;
73337;SDS011;61575;49.908;35.556;2023-04-07T05:17:52;20.15;;;12.60;;
73337;SDS011;61575;49.908;35.556;2023-04-07T05:20:59;20.58;;;13.43;;
73337;SDS011;61575;49.908;35.556;2023-04-07T05:24:04;29.05;;;16.70;;
73337;SDS011;61575;49.908;35.556;2023-04-07T05:27:09;25.45;;;15.23;;
73337;SDS011;61575;49.908;35.556;2023-04-07T05:30:13;30.98;;;18.95;;
73337;SDS011;61575;49.908;35.556;2023-04-07T05:33:15;29.77;;;16.70;;
73337;SDS011;61575;49.908;35.556;2023-04-07T05:36:26;22.02;;;13.73;;
73337;SDS011;61575;49.908;35.556;2023-04-07T05:39:30;22.00;;;14.10;;
73337;SDS011;61575;49.908;35.556;2023-04-07T05:42:34;22.98;;;15.00;;
73337;SDS011;61575;49.908;35.556;2023-04-07T05:45:37;23.85;;;14.57;;
73337;SDS011;61575;49.908;35.556;2023-04-07T05:48:40;21.00;;;14.38;;
73337;SDS011;61575;49.908;35.556;2023-04-07T05:51:43;25.45;;;15.77;;
73337;SDS011;61575;49.908;35.556;2023-04-07T05:54:48;22.73;;;14.90;;
73337;SDS011;61575;49.908;35.556;2023-04-07T05:57:51;24.25;;;15.43;;
73337;SDS011;61575;49.908;35.556;2023-04-07T06:00:56;23.10;;;14.40;;
73337;SDS011;61575;49.908;35.556;2023-04-07T06:03:57;27.43;;;19.57;;
73337;SDS011;61575;49.908;35.556;2023-04-07T06:07:01;23.17;;;14.27;;
73337;SDS011;61575;49.908;35.556;2023-04-07T06:13:05;21.33;;;13.93;;
73337;SDS011;61575;49.908;35.556;2023-04-07T06:16:08;27.58;;;19.48;;
73337;SDS011;61575;49.908;35.556;2023-04-07T06:19:11;22.33;;;14.52;;
73337;SDS011;61575;49.908;35.556;2023-04-07T06:22:13;23.70;;;13.47;;
73337;SDS011;61575;49.908;35.556;2023-04-07T06:25:16;34.73;;;24.37;;
73337;SDS011;61575;49.908;35.556;2023-04-07T06:28:18;28.52;;;20.35;;
73337;SDS011;61575;49.908;35.556;2023-04-07T06:31:22;22.35;;;15.60;;
73337;SDS011;61575;49.908;35.556;2023-04-07T06:34:26;25.10;;;15.25;;
73337;SDS011;61575;49.908;35.556;2023-04-07T06:37:28;22.55;;;15.15;;
73337;SDS011;61575;49.908;35.556;2023-04-07T06:40:30;20.77;;;13.70;;
73337;SDS011;61575;49.908;35.556;2023-04-07T06:43:32;21.67;;;14.10;;
73337;SDS011;61575;49.908;35.556;2023-04-07T06:46:36;18.08;;;12.13;;
73337;SDS011;61575;49.908;35.556;2023-04-07T06:49:38;21.43;;;13.70;;
73337;SDS011;61575;49.908;35.556;2023-04-07T06:52:40;20.75;;;13.80;;
73337;SDS011;61575;49.908;35.556;2023-04-07T06:55:42;18.50;;;13.03;;
73337;SDS011;61575;49.908;35.556;2023-04-07T06:58:44;21.20;;;14.48;;
73337;SDS011;61575;49.908;35.556;2023-04-07T07:01:47;28.10;;;19.10;;
73337;SDS011;61575;49.908;35.556;2023-04-07T07:04:49;21.00;;;13.18;;
73337;SDS011;61575;49.908;35.556;2023-04-07T07:07:51;20.43;;;12.60;;
73337;SDS011;61575;49.908;35.556;2023-04-07T07:10:53;19.80;;;14.23;;
73337;SDS011;61575;49.908;35.556;2023-04-07T07:13:56;17.55;;;12.25;;
73337;SDS011;61575;49.908;35.556;2023-04-07T07:16:59;18.00;;;10.67;;
73337;SDS011;61575;49.908;35.556;2023-04-07T07:20:01;22.13;;;13.32;;
73337;SDS011;61575;49.908;35.556;2023-04-07T07:23:03;20.20;;;11.47;;
73337;SDS011;61575;49.908;35.556;2023-04-07T07:26:05;18.50;;;11.43;;
73337;SDS011;61575;49.908;35.556;2023-04-07T07:29:07;18.43;;;11.87;;
73337;SDS011;61575;49.908;35.556;2023-04-07T07:32:08;15.43;;;10.20;;
73337;SDS011;61575;49.908;35.556;2023-04-07T07:35:10;15.03;;;10.37;;
73337;SDS011;61575;49.908;35.556;2023-04-07T07:38:12;15.10;;;10.23;;
73337;SDS011;61575;49.908;35.556;2023-04-07T07:41:14;13.80;;;9.50;;
73337;SDS011;61575;49.908;35.556;2023-04-07T07:44:16;15.20;;;10.67;;
73337;SDS011;61575;49.908;35.556;2023-04-07T07:47:20;14.32;;;9.73;;
73337;SDS011;61575;49.908;35.556;2023-04-07T07:50:24;16.88;;;10.85;;
73337;SDS011;61575;49.908;35.556;2023-04-07T07:53:26;14.68;;;10.48;;
73337;SDS011;61575;49.908;35.556;2023-04-07T07:56:28;14.67;;;10.40;;
73337;SDS011;61575;49.908;35.556;2023-04-07T07:59:30;15.30;;;10.70;;
73337;SDS011;61575;49.908;35.556;2023-04-07T08:02:32;15.43;;;10.02;;
73337;SDS011;61575;49.908;35.556;2023-04-07T08:05:35;15.27;;;10.38;;
73337;SDS011;61575;49.908;35.556;2023-04-07T08:08:36;16.87;;;10.10;;
73337;SDS011;61575;49.908;35.556;2023-04-07T08:11:39;13.80;;;9.95;;
73337;SDS011;61575;49.908;35.556;2023-04-07T08:14:41;15.57;;;10.25;;
73337;SDS011;61575;49.908;35.556;2023-04-07T08:17:43;15.60;;;9.98;;
73337;SDS011;61575;49.908;35.556;2023-04-07T08:20:45;14.85;;;10.15;;
73337;SDS011;61575;49.908;35.556;2023-04-07T08:23:47;17.63;;;11.95;;
73337;SDS011;61575;49.908;35.556;2023-04-07T08:26:49;17.35;;;10.82;;
73337;SDS011;61575;49.908;35.556;2023-04-07T08:30:04;17.50;;;11.67;;
73337;SDS011;61575;49.908;35.556;2023-04-07T08:33:07;18.05;;;12.68;;
73337;SDS011;61575;49.908;35.556;2023-04-07T08:36:09;17.65;;;11.30;;
73337;SDS011;61575;49.908;35.556;2023-04-07T08:39:12;16.75;;;11.23;;
73337;SDS011;61575;49.908;35.556;2023-04-07T08:42:14;21.23;;;12.70;;
73337;SDS011;61575;49.908;35.556;2023-04-07T08:45:17;14.95;;;10.40;;
73337;SDS011;61575;49.908;35.556;2023-04-07T08:48:20;13.38;;;8.95;;
73337;SDS011;61575;49.908;35.556;2023-04-07T08:51:28;13.52;;;7.32;;
73337;SDS011;61575;49.908;35.556;2023-04-07T08:54:32;10.15;;;5.53;;
73337;SDS011;61575;49.908;35.556;2023-04-07T08:57:35;8.68;;;4.82;;
73337;SDS011;61575;49.908;35.556;2023-04-07T09:00:42;6.20;;;4.18;;
73337;SDS011;61575;49.908;35.556;2023-04-07T09:03:46;8.18;;;3.55;;
73337;SDS011;61575;49.908;35.556;2023-04-07T09:06:50;8.40;;;4.10;;
73337;SDS011;61575;49.908;35.556;2023-04-07T09:09:53;8.68;;;4.32;;
73337;SDS011;61575;49.908;35.556;2023-04-07T09:12:57;9.70;;;4.50;;
73337;SDS011;61575;49.908;35.556;2023-04-07T09:16:00;9.25;;;4.53;;
73337;SDS011;61575;49.908;35.556;2023-04-07T09:19:03;7.88;;;4.80;;
73337;SDS011;61575;49.908;35.556;2023-04-07T09:22:06;10.50;;;5.63;;
73337;SDS011;61575;49.908;35.556;2023-04-07T09:25:14;9.00;;;5.32;;
73337;SDS011;61575;49.908;35.556;2023-04-07T09:28:20;10.52;;;6.68;;
73337;SDS011;61575;49.908;35.556;2023-04-07T09:31:42;11.70;;;7.13;;
73337;SDS011;61575;49.908;35.556;2023-04-07T09:34:56;12.73;;;8.05;;
73337;SDS011;61575;49.908;35.556;2023-04-07T09:38:01;11.85;;;7.30;;
73337;SDS011;61575;49.908;35.556;2023-04-07T09:41:16;15.18;;;8.25;;
73337;SDS011;61575;49.908;35.556;2023-04-07T09:44:18;16.92;;;8.10;;
73337;SDS011;61575;49.908;35.556;2023-04-07T09:47:26;15.18;;;7.88;;
73337;SDS011;61575;49.908;35.556;2023-04-07T09:50:32;12.82;;;8.02;;
73337;SDS011;61575;49.908;35.556;2023-04-07T09:53:43;14.23;;;8.65;;
73337;SDS011;61575;49.908;35.556;2023-04-07T09:56:50;13.73;;;7.47;;
73337;SDS011;61575;49.908;35.556;2023-04-07T09:59:52;14.97;;;7.33;;
73337;SDS011;61575;49.908;35.556;2023-04-07T10:02:56;16.08;;;7.50;;
73337;SDS011;61575;49.908;35.556;2023-04-07T10:05:59;12.40;;;6.22;;
73337;SDS011;61575;49.908;35.556;2023-04-07T10:09:02;12.30;;;4.68;;
73337;SDS011;61575;49.908;35.556;2023-04-07T10:12:04;12.50;;;4.25;;
73337;SDS011;61575;49.908;35.556;2023-04-07T10:15:07;11.35;;;4.90;;
73337;SDS011;61575;49.908;35.556;2023-04-07T10:18:13;12.25;;;4.20;;
73337;SDS011;61575;49.908;35.556;2023-04-07T10:28:07;13.13;;;4.88;;
73337;SDS011;61575;49.908;35.556;2023-04-07T10:31:12;10.43;;;4.53;;
73337;SDS011;61575;49.908;35.556;2023-04-07T10:34:14;10.43;;;3.70;;
73337;SDS011;61575;49.908;35.556;2023-04-07T10:37:16;12.02;;;3.55;;
73337;SDS011;61575;49.908;35.556;2023-04-07T10:40:28;13.50;;;4.22;;
73337;SDS011;61575;49.908;35.556;2023-04-07T10:43:37;11.82;;;4.88;;
73337;SDS011;61575;49.908;35.556;2023-04-07T10:53:24;13.88;;;4.20;;
73337;SDS011;61575;49.908;35.556;2023-04-07T10:56:28;10.00;;;3.50;;
73337;SDS011;61575;49.908;35.556;2023-04-07T11:03:12;15.30;;;3.55;;
73337;SDS011;61575;49.908;35.556;2023-04-07T11:06:14;10.57;;;3.95;;
73337;SDS011;61575;49.908;35.556;2023-04-07T11:09:19;11.07;;;3.50;;
73337;SDS011;61575;49.908;35.556;2023-04-07T11:12:22;11.27;;;4.10;;
73337;SDS011;61575;49.908;35.556;2023-04-07T11:15:25;12.50;;;3.58;;
73337;SDS011;61575;49.908;35.556;2023-04-07T11:18:27;11.48;;;3.25;;
73337;SDS011;61575;49.908;35.556;2023-04-07T11:21:29;10.40;;;3.00;;
73337;SDS011;61575;49.908;35.556;2023-04-07T11:27:39;12.30;;;3.35;;
73337;SDS011;61575;49.908;35.556;2023-04-07T11:30:45;11.27;;;3.03;;
73337;SDS011;61575;49.908;35.556;2023-04-07T11:33:57;8.98;;;3.10;;
73337;SDS011;61575;49.908;35.556;2023-04-07T11:37:19;11.43;;;3.58;;
73337;SDS011;61575;49.908;35.556;2023-04-07T11:40:32;13.90;;;3.67;;
73337;SDS011;61575;49.908;35.556;2023-04-07T11:43:35;16.25;;;3.53;;
73337;SDS011;61575;49.908;35.556;2023-04-07T11:50:00;14.57;;;3.70;;
73337;SDS011;61575;49.908;35.556;2023-04-07T11:53:02;13.68;;;3.92;;
73337;SDS011;61575;49.908;35.556;2023-04-07T11:59:06;14.18;;;4.00;;
73337;SDS011;61575;49.908;35.556;2023-04-07T12:02:08;10.73;;;3.20;;
73337;SDS011;61575;49.908;35.556;2023-04-07T12:08:14;11.32;;;3.63;;
73337;SDS011;61575;49.908;35.556;2023-04-07T12:11:20;10.80;;;3.92;;
73337;SDS011;61575;49.908;35.556;2023-04-07T12:14:22;12.20;;;3.97;;
73337;SDS011;61575;49.908;35.556;2023-04-07T12:17:25;11.18;;;3.78;;
73337;SDS011;61575;49.908;35.556;2023-04-07T12:20:27;9.52;;;4.00;;
73337;SDS011;61575;49.908;35.556;2023-04-07T12:23:29;13.55;;;3.70;;
73337;SDS011;61575;49.908;35.556;2023-04-07T12:26:31;15.77;;;4.05;;
73337;SDS011;61575;49.908;35.556;2023-04-07T12:29:33;9.75;;;3.83;;
73337;SDS011;61575;49.908;35.556;2023-04-07T12:32:35;11.90;;;3.38;;
73337;SDS011;61575;49.908;35.556;2023-04-07T12:35:38;12.93;;;4.10;;
73337;SDS011;61575;49.908;35.556;2023-04-07T12:41:42;13.82;;;3.50;;
73337;SDS011;61575;49.908;35.556;2023-04-07T12:44:46;12.23;;;2.53;;
73337;SDS011;61575;49.908;35.556;2023-04-07T12:47:48;10.07;;;2.42;;
73337;SDS011;61575;49.908;35.556;2023-04-07T12:50:50;11.90;;;2.50;;
73337;SDS011;61575;49.908;35.556;2023-04-07T12:53:52;11.35;;;2.70;;
73337;SDS011;61575;49.908;35.556;2023-04-07T12:56:54;13.05;;;2.38;;
73337;SDS011;61575;49.908;35.556;2023-04-07T12:59:57;9.38;;;2.58;;
73337;SDS011;61575;49.908;35.556;2023-04-07T13:02:59;8.57;;;2.70;;
73337;SDS011;61575;49.908;35.556;2023-04-07T13:06:02;9.80;;;2.45;;
73337;SDS011;61575;49.908;35.556;2023-04-07T13:09:04;10.45;;;3.15;;
73337;SDS011;61575;49.908;35.556;2023-04-07T13:12:06;14.23;;;3.33;;
73337;SDS011;61575;49.908;35.556;2023-04-07T13:15:08;13.43;;;3.30;;
73337;SDS011;61575;49.908;35.556;2023-04-07T13:18:11;13.18;;;3.15;;
73337;SDS011;61575;49.908;35.556;2023-04-07T13:21:12;11.32;;;4.07;;
73337;SDS011;61575;49.908;35.556;2023-04-07T13:24:17;16.95;;;4.18;;
73337;SDS011;61575;49.908;35.556;2023-04-07T13:27:21;6.80;;;2.53;;
73337;SDS011;61575;49.908;35.556;2023-04-07T13:30:24;14.82;;;3.08;;
73337;SDS011;61575;49.908;35.556;2023-04-07T13:33:26;10.88;;;3.10;;
73337;SDS011;61575;49.908;35.556;2023-04-07T13:36:28;13.10;;;3.33;;
73337;SDS011;61575;49.908;35.556;2023-04-07T13:39:31;19.80;;;12.55;;
73337;SDS011;61575;49.908;35.556;2023-04-07T13:45:35;15.35;;;4.03;;
73337;SDS011;61575;49.908;35.556;2023-04-07T13:48:37;11.02;;;2.83;;
73337;SDS011;61575;49.908;35.556;2023-04-07T13:51:39;13.20;;;3.28;;
73337;SDS011;61575;49.908;35.556;2023-04-07T13:54:42;24.63;;;9.63;;
73337;SDS011;61575;49.908;35.556;2023-04-07T13:57:44;21.42;;;7.25;;
73337;SDS011;61575;49.908;35.556;2023-04-07T14:00:46;19.55;;;7.65;;
73337;SDS011;61575;49.908;35.556;2023-04-07T14:03:48;16.87;;;3.43;;
73337;SDS011;61575;49.908;35.556;2023-04-07T14:06:51;12.57;;;3.97;;
73337;SDS011;61575;49.908;35.556;2023-04-07T14:09:53;13.73;;;3.92;;
73337;SDS011;61575;49.908;35.556;2023-04-07T14:12:56;12.35;;;4.07;;
73337;SDS011;61575;49.908;35.556;2023-04-07T14:15:58;11.30;;;4.18;;
73337;SDS011;61575;49.908;35.556;2023-04-07T14:19:00;14.52;;;6.07;;
73337;SDS011;61575;49.908;35.556;2023-04-07T14:22:02;16.30;;;7.43;;
73337;SDS011;61575;49.908;35.556;2023-04-07T14:25:04;18.02;;;6.97;;
73337;SDS011;61575;49.908;35.556;2023-04-07T14:28:06;16.58;;;7.40;;
73337;SDS011;61575;49.908;35.556;2023-04-07T14:31:12;18.63;;;8.38;;
73337;SDS011;61575;49.908;35.556;2023-04-07T14:34:16;16.17;;;8.85;;
73337;SDS011;61575;49.908;35.556;2023-04-07T14:37:18;15.85;;;9.15;;
73337;SDS011;61575;49.908;35.556;2023-04-07T14:40:24;23.02;;;14.13;;
73337;SDS011;61575;49.908;35.556;2023-04-07T14:43:28;20.60;;;10.50;;
73337;SDS011;61575;49.908;35.556;2023-04-07T14:46:31;13.40;;;6.00;;
73337;SDS011;61575;49.908;35.556;2023-04-07T14:49:33;10.20;;;4.57;;
73337;SDS011;61575;49.908;35.556;2023-04-07T14:52:35;11.27;;;4.43;;
73337;SDS011;61575;49.908;35.556;2023-04-07T14:55:37;14.77;;;5.20;;
73337;SDS011;61575;49.908;35.556;2023-04-07T14:58:41;13.35;;;4.65;;
73337;SDS011;61575;49.908;35.556;2023-04-07T15:01:43;13.23;;;5.17;;
73337;SDS011;61575;49.908;35.556;2023-04-07T15:04:45;18.13;;;7.38;;
73337;SDS011;61575;49.908;35.556;2023-04-07T15:07:48;18.70;;;7.07;;
73337;SDS011;61575;49.908;35.556;2023-04-07T15:10:53;12.98;;;4.57;;
73337;SDS011;61575;49.908;35.556;2023-04-07T15:13:55;13.17;;;5.23;;
73337;SDS011;61575;49.908;35.556;2023-04-07T15:16:57;12.90;;;4.30;;
73337;SDS011;61575;49.908;35.556;2023-04-07T15:19:59;12.85;;;4.05;;
73337;SDS011;61575;49.908;35.556;2023-04-07T15:23:00;12.35;;;3.95;;
73337;SDS011;61575;49.908;35.556;2023-04-07T15:26:05;14.23;;;5.55;;
73337;SDS011;61575;49.908;35.556;2023-04-07T15:29:08;21.15;;;6.05;;
73337;SDS011;61575;49.908;35.556;2023-04-07T15:32:10;19.33;;;5.23;;
73337;SDS011;61575;49.908;35.556;2023-04-07T15:35:12;15.30;;;5.30;;
73337;SDS011;61575;49.908;35.556;2023-04-07T15:38:14;15.40;;;5.80;;
73337;SDS011;61575;49.908;35.556;2023-04-07T15:41:16;17.88;;;7.05;;
73337;SDS011;61575;49.908;35.556;2023-04-07T15:44:18;15.75;;;7.20;;
73337;SDS011;61575;49.908;35.556;2023-04-07T15:47:20;19.05;;;7.30;;
73337;SDS011;61575;49.908;35.556;2023-04-07T15:50:22;15.77;;;6.07;;
73337;SDS011;61575;49.908;35.556;2023-04-07T15:56:28;22.65;;;10.85;;
73337;SDS011;61575;49.908;35.556;2023-04-07T15:59:30;20.67;;;9.93;;
73337;SDS011;61575;49.908;35.556;2023-04-07T16:02:32;23.98;;;11.82;;
73337;SDS011;61575;49.908;35.556;2023-04-07T16:05:36;19.48;;;9.57;;
73337;SDS011;61575;49.908;35.556;2023-04-07T16:08:38;17.35;;;9.18;;
73337;SDS011;61575;49.908;35.556;2023-04-07T16:11:40;17.40;;;7.70;;
73337;SDS011;61575;49.908;35.556;2023-04-07T16:14:42;15.05;;;8.02;;
73337;SDS011;61575;49.908;35.556;2023-04-07T16:17:45;47.20;;;21.98;;
73337;SDS011;61575;49.908;35.556;2023-04-07T16:20:48;60.97;;;40.38;;
73337;SDS011;61575;49.908;35.556;2023-04-07T16:23:50;25.20;;;13.07;;
73337;SDS011;61575;49.908;35.556;2023-04-07T16:26:52;23.23;;;9.23;;
73337;SDS011;61575;49.908;35.556;2023-04-07T16:29:56;18.38;;;7.88;;
73337;SDS011;61575;49.908;35.556;2023-04-07T16:32:58;18.53;;;7.80;;
73337;SDS011;61575;49.908;35.556;2023-04-07T16:36:01;16.15;;;5.03;;
73337;SDS011;61575;49.908;35.556;2023-04-07T16:39:03;15.25;;;4.97;;
73337;SDS011;61575;49.908;35.556;2023-04-07T16:42:05;17.42;;;6.40;;
73337;SDS011;61575;49.908;35.556;2023-04-07T16:45:07;16.70;;;6.50;;
73337;SDS011;61575;49.908;35.556;2023-04-07T16:48:09;16.70;;;6.90;;
73337;SDS011;61575;49.908;35.556;2023-04-07T16:51:18;17.53;;;7.87;;
73337;SDS011;61575;49.908;35.556;2023-04-07T16:54:21;17.98;;;12.30;;
73337;SDS011;61575;49.908;35.556;2023-04-07T16:57:22;27.43;;;14.10;;
73337;SDS011;61575;49.908;35.556;2023-04-07T17:00:24;32.03;;;14.55;;
73337;SDS011;61575;49.908;35.556;2023-04-07T17:03:26;28.95;;;15.75;;
73337;SDS011;61575;49.908;35.556;2023-04-07T17:06:29;18.17;;;7.47;;
73337;SDS011;61575;49.908;35.556;2023-04-07T17:09:31;17.47;;;8.80;;
73337;SDS011;61575;49.908;35.556;2023-04-07T17:12:33;18.50;;;7.53;;
73337;SDS011;61575;49.908;35.556;2023-04-07T17:15:35;14.60;;;6.73;;
73337;SDS011;61575;49.908;35.556;2023-04-07T17:18:38;11.88;;;5.40;;
73337;SDS011;61575;49.908;35.556;2023-04-07T17:21:40;12.40;;;6.40;;
73337;SDS011;61575;49.908;35.556;2023-04-07T17:24:42;11.20;;;4.87;;
73337;SDS011;61575;49.908;35.556;2023-04-07T17:27:44;12.23;;;5.13;;
73337;SDS011;61575;49.908;35.556;2023-04-07T17:30:48;13.35;;;5.80;;
73337;SDS011;61575;49.908;35.556;2023-04-07T17:33:50;10.33;;;5.23;;
73337;SDS011;61575;49.908;35.556;2023-04-07T17:36:52;11.97;;;6.27;;
73337;SDS011;61575;49.908;35.556;2023-04-07T17:39:54;15.97;;;6.33;;
73337;SDS011;61575;49.908;35.556;2023-04-07T17:42:57;14.68;;;5.50;;
73337;SDS011;61575;49.908;35.556;2023-04-07T17:45:59;13.68;;;5.40;;
73337;SDS011;61575;49.908;35.556;2023-04-07T17:49:01;14.20;;;5.50;;
73337;SDS011;61575;49.908;35.556;2023-04-07T17:55:06;15.35;;;6.60;;
73337;SDS011;61575;49.908;35.556;2023-04-07T18:01:10;16.45;;;8.45;;
73337;SDS011;61575;49.908;35.556;2023-04-07T18:04:12;19.27;;;8.53;;
73337;SDS011;61575;49.908;35.556;2023-04-07T18:07:15;13.98;;;5.47;;
73337;SDS011;61575;49.908;35.556;2023-04-07T18:10:18;15.43;;;5.25;;
73337;SDS011;61575;49.908;35.556;2023-04-07T18:13:20;12.33;;;5.77;;
73337;SDS011;61575;49.908;35.556;2023-04-07T18:16:22;12.32;;;5.55;;
73337;SDS011;61575;49.908;35.556;2023-04-07T18:19:24;15.52;;;6.30;;
73337;SDS011;61575;49.908;35.556;2023-04-07T18:22:26;14.27;;;6.30;;
73337;SDS011;61575;49.908;35.556;2023-04-07T18:25:28;18.08;;;6.55;;
73337;SDS011;61575;49.908;35.556;2023-04-07T18:28:30;17.43;;;5.80;;
73337;SDS011;61575;49.908;35.556;2023-04-07T18:31:33;15.50;;;6.20;;
73337;SDS011;61575;49.908;35.556;2023-04-07T18:34:35;11.93;;;5.77;;
73337;SDS011;61575;49.908;35.556;2023-04-07T18:37:37;14.57;;;5.70;;
73337;SDS011;61575;49.908;35.556;2023-04-07T18:40:38;14.23;;;5.33;;
73337;SDS011;61575;49.908;35.556;2023-04-07T18:43:40;15.53;;;5.30;;
73337;SDS011;61575;49.908;35.556;2023-04-07T18:46:42;10.38;;;4.82;;
73337;SDS011;61575;49.908;35.556;2023-04-07T18:49:46;12.60;;;4.63;;